createdAt,value
2018-04-27T00:01:22.379Z,11.02
2018-04-27T00:03:49.947Z,8.70
2018-04-27T00:06:17.520Z,9.82
2018-04-27T00:08:45.120Z,6.95
2018-04-27T00:11:13.458Z,8.43
2018-04-27T00:13:41.026Z,9.98
2018-04-27T00:16:08.618Z,6.70
2018-04-27T00:18:36.191Z,7.70
2018-04-27T00:21:03.759Z,8.13
2018-04-27T00:23:31.359Z,8.60
2018-04-27T00:25:58.916Z,7.55
2018-04-27T00:28:26.476Z,9.40
2018-04-27T00:30:54.074Z,8.20
2018-04-27T00:33:21.670Z,11.48
2018-04-27T00:35:49.243Z,9.80
2018-04-27T00:38:16.829Z,9.35
2018-04-27T00:40:44.396Z,8.70
2018-04-27T00:43:11.965Z,11.00
2018-04-27T00:45:39.572Z,8.85
2018-04-27T00:48:07.146Z,9.65
2018-04-27T00:50:34.730Z,10.98
2018-04-27T00:53:14.170Z,9.25
2018-04-27T00:55:41.746Z,12.27
2018-04-27T00:58:09.327Z,12.25
2018-04-27T01:00:36.938Z,12.93
2018-04-27T01:03:05.286Z,12.70
2018-04-27T01:05:32.869Z,14.82
2018-04-27T01:08:00.475Z,12.50
2018-04-27T01:10:28.809Z,12.10
2018-04-27T01:12:56.381Z,11.45
2018-04-27T01:15:23.985Z,10.68
2018-04-27T01:17:51.562Z,12.10
2018-04-27T01:20:19.132Z,12.98
2018-04-27T01:22:46.739Z,12.60
2018-04-27T01:25:15.070Z,13.00
2018-04-27T01:27:42.639Z,11.23
2018-04-27T01:30:10.234Z,11.00
2018-04-27T01:32:37.810Z,13.38
2018-04-27T01:35:05.381Z,11.10
2018-04-27T01:37:32.999Z,12.20
2018-04-27T01:40:01.330Z,11.80
2018-04-27T01:42:28.890Z,9.85
2018-04-27T01:44:56.492Z,8.95
2018-04-27T01:47:24.066Z,10.75
2018-04-27T01:49:51.640Z,9.50
2018-04-27T01:52:19.246Z,10.30
2018-04-27T01:54:47.590Z,10.70
2018-04-27T01:57:15.150Z,8.55
2018-04-27T01:59:42.754Z,10.23
2018-04-27T02:02:10.335Z,10.65
2018-04-27T02:04:37.911Z,8.90
2018-04-27T02:07:05.529Z,11.93
2018-04-27T02:09:33.128Z,9.60
2018-04-27T02:12:00.702Z,8.10
2018-04-27T02:14:28.299Z,13.88
2018-04-27T02:16:55.862Z,8.65
2018-04-27T02:19:23.426Z,8.18
2018-04-27T02:21:51.028Z,8.77
2018-04-27T02:24:18.599Z,8.18
2018-04-27T02:26:46.178Z,7.20
2018-04-27T02:29:13.769Z,7.80
2018-04-27T02:31:42.119Z,10.88
2018-04-27T02:34:09.774Z,10.85
2018-04-27T02:36:37.387Z,8.13
2018-04-27T02:39:04.963Z,13.15
2018-04-27T02:41:33.307Z,10.10
2018-04-27T02:44:00.984Z,11.82
2018-04-27T02:46:28.559Z,12.85
2018-04-27T02:48:56.130Z,10.93
2018-04-27T02:51:23.743Z,10.95
2018-04-27T02:53:51.321Z,10.55
2018-04-27T02:56:18.966Z,9.95
2018-04-27T02:58:46.630Z,11.12
2018-04-27T03:01:14.207Z,12.63
2018-04-27T03:03:41.874Z,9.13
2018-04-27T03:06:09.478Z,9.73
2018-04-27T03:08:37.071Z,11.90
2018-04-27T03:11:05.418Z,12.37
2018-04-27T03:13:33.065Z,12.82
2018-04-27T03:16:00.663Z,13.65
2018-04-27T03:18:28.244Z,12.40
2018-04-27T03:20:55.834Z,10.45
2018-04-27T03:23:23.406Z,10.55
2018-04-27T03:25:50.993Z,11.50
2018-04-27T03:28:18.586Z,11.05
2018-04-27T03:30:46.159Z,8.63
2018-04-27T03:33:13.734Z,13.65
2018-04-27T03:35:41.334Z,11.23
2018-04-27T03:38:08.935Z,9.27
2018-04-27T03:40:36.539Z,9.90
2018-04-27T03:43:04.160Z,11.95
2018-04-27T03:45:31.725Z,10.02
2018-04-27T03:47:59.299Z,11.40
2018-04-27T03:50:26.904Z,10.80
2018-04-27T03:52:54.475Z,12.75
2018-04-27T03:55:22.045Z,8.60
2018-04-27T03:57:49.650Z,12.55
2018-04-27T04:00:29.787Z,12.10
2018-04-27T04:03:09.207Z,10.60
2018-04-27T04:05:36.778Z,10.23
2018-04-27T04:08:04.354Z,11.85
2018-04-27T04:10:31.963Z,11.98
2018-04-27T04:12:59.539Z,11.70
2018-04-27T04:15:27.127Z,12.27
2018-04-27T04:17:55.494Z,12.25
2018-04-27T04:20:23.067Z,11.45
2018-04-27T04:22:51.041Z,10.18
2018-04-27T04:25:18.702Z,12.40
2018-04-27T04:27:46.275Z,9.35
2018-04-27T04:30:13.837Z,14.55
2018-04-27T04:32:41.436Z,8.38
2018-04-27T04:35:09.007Z,10.18
2018-04-27T04:37:36.569Z,9.40
2018-04-27T04:40:04.550Z,8.48
2018-04-27T04:42:32.118Z,8.88
2018-04-27T04:44:59.693Z,11.65
2018-04-27T04:47:27.294Z,11.65
2018-04-27T04:49:54.873Z,12.55
2018-04-27T04:52:22.454Z,15.48
2018-04-27T04:54:50.906Z,15.80
2018-04-27T04:57:18.487Z,11.68
2018-04-27T04:59:46.061Z,10.15
2018-04-27T05:02:13.843Z,10.40
2018-04-27T05:04:41.504Z,13.98
2018-04-27T05:07:09.078Z,11.48
2018-04-27T05:09:36.693Z,13.07
2018-04-27T05:12:04.277Z,12.48
2018-04-27T05:14:32.624Z,10.50
2018-04-27T05:17:00.235Z,11.63
2018-04-27T05:19:28.572Z,11.02
2018-04-27T05:21:56.148Z,10.38
2018-04-27T05:24:23.880Z,10.18
2018-04-27T05:26:52.226Z,10.70
2018-04-27T05:29:19.807Z,16.62
2018-04-27T05:31:47.403Z,10.65
2018-04-27T05:34:14.971Z,9.88
2018-04-27T05:36:42.546Z,11.98
2018-04-27T05:39:10.143Z,8.70
2018-04-27T05:41:38.483Z,10.63
2018-04-27T05:44:06.054Z,10.52
2018-04-27T05:46:33.667Z,11.20
2018-04-27T05:49:02.014Z,11.57
2018-04-27T05:51:29.606Z,10.25
2018-04-27T05:53:57.202Z,9.00
2018-04-27T05:56:25.538Z,7.60
2018-04-27T05:58:53.117Z,11.18
2018-04-27T06:01:20.715Z,9.63
2018-04-27T06:04:00.241Z,10.13
2018-04-27T06:06:27.838Z,8.52
2018-04-27T06:08:55.410Z,9.32
2018-04-27T06:11:22.983Z,9.50
2018-04-27T06:13:50.577Z,7.20
2018-04-27T06:16:18.151Z,7.70
2018-04-27T06:18:45.874Z,8.07
2018-04-27T06:21:13.473Z,7.53
2018-04-27T06:23:41.051Z,9.05
2018-04-27T06:26:08.671Z,6.32
2018-04-27T06:28:42.196Z,7.72
2018-04-27T06:31:09.762Z,6.15
2018-04-27T06:33:37.330Z,7.20
2018-04-27T06:36:04.937Z,6.75
2018-04-27T06:38:32.501Z,5.22
2018-04-27T06:41:00.067Z,6.82
2018-04-27T06:43:27.661Z,7.53
2018-04-27T06:45:55.242Z,5.18
2018-04-27T06:48:22.813Z,6.12
2018-04-27T06:50:50.416Z,6.20
2018-04-27T06:53:17.985Z,5.65
2018-04-27T06:55:45.562Z,6.37
2018-04-27T06:58:13.138Z,3.93
2018-04-27T07:00:40.694Z,6.50
2018-04-27T07:03:08.247Z,5.40
2018-04-27T07:05:35.828Z,4.27
2018-04-27T07:08:03.378Z,4.80
2018-04-27T07:10:30.925Z,4.20
2018-04-27T07:12:59.287Z,4.70
2018-04-27T07:15:26.843Z,7.63
2018-04-27T07:17:54.398Z,4.20
2018-04-27T07:20:21.988Z,4.20
2018-04-27T07:22:49.547Z,3.60
2018-04-27T07:25:17.098Z,6.23
2018-04-27T07:27:44.679Z,6.00
2018-04-27T07:30:12.226Z,4.63
2018-04-27T07:32:40.544Z,6.33
2018-04-27T07:35:08.119Z,5.93
2018-04-27T07:37:35.695Z,4.62
2018-04-27T07:40:03.246Z,4.23
2018-04-27T07:42:30.823Z,4.13
2018-04-27T07:44:58.369Z,4.47
2018-04-27T07:47:25.942Z,4.50
2018-04-27T07:49:53.541Z,6.55
2018-04-27T07:52:21.124Z,4.62
2018-04-27T07:54:48.697Z,3.67
2018-04-27T07:57:16.287Z,5.40
2018-04-27T07:59:43.864Z,4.47
2018-04-27T08:02:11.508Z,4.82
2018-04-27T08:04:39.062Z,6.57
2018-04-27T08:07:07.414Z,4.03
2018-04-27T08:09:34.950Z,3.70
2018-04-27T08:12:02.531Z,4.70
2018-04-27T08:14:30.111Z,4.22
2018-04-27T08:16:57.687Z,5.20
2018-04-27T08:19:25.289Z,6.65
2018-04-27T08:21:53.626Z,4.60
2018-04-27T08:24:21.213Z,5.03
2018-04-27T08:26:48.811Z,6.87
2018-04-27T08:29:16.368Z,5.63
2018-04-27T08:31:43.923Z,4.57
2018-04-27T08:34:11.498Z,4.53
2018-04-27T08:36:39.058Z,3.40
2018-04-27T08:39:06.651Z,4.27
2018-04-27T08:41:34.233Z,5.20
2018-04-27T08:44:01.784Z,5.50
2018-04-27T08:46:30.133Z,4.27
2018-04-27T08:48:57.715Z,6.17
2018-04-27T08:51:26.030Z,5.10
2018-04-27T08:53:53.577Z,4.90
2018-04-27T08:56:21.154Z,6.77
2018-04-27T08:58:49.472Z,3.53
2018-04-27T09:01:17.022Z,5.70
2018-04-27T09:03:45.356Z,3.00
2018-04-27T09:06:12.925Z,2.90
2018-04-27T09:08:40.488Z,3.80
2018-04-27T09:11:08.056Z,3.30
2018-04-27T09:13:35.602Z,3.33
2018-04-27T09:16:03.916Z,4.80
2018-04-27T09:18:31.495Z,4.50
2018-04-27T09:20:59.036Z,4.67
2018-04-27T09:23:27.359Z,4.40
2018-04-27T09:25:54.930Z,5.07
2018-04-27T09:28:22.478Z,4.00
2018-04-27T09:30:50.789Z,4.90
2018-04-27T09:33:18.349Z,5.23
2018-04-27T09:35:46.671Z,5.00
2018-04-27T09:38:14.214Z,5.20
2018-04-27T09:40:41.789Z,4.07
2018-04-27T09:43:09.347Z,3.60
2018-04-27T09:45:37.655Z,3.27
2018-04-27T09:48:05.239Z,6.27
2018-04-27T09:50:32.799Z,4.13
2018-04-27T09:53:00.347Z,5.50
2018-04-27T09:55:28.687Z,5.70
2018-04-27T09:57:56.234Z,4.13
2018-04-27T10:00:23.774Z,5.30
2018-04-27T10:02:51.341Z,3.50
2018-04-27T10:05:18.877Z,4.87
2018-04-27T10:07:46.422Z,3.03
2018-04-27T10:10:14.000Z,4.30
2018-04-27T10:12:41.589Z,3.53
2018-04-27T10:15:09.125Z,5.50
2018-04-27T10:17:37.466Z,5.10
2018-04-27T10:20:05.019Z,3.00
2018-04-27T10:22:32.600Z,3.27
2018-04-27T10:25:00.165Z,4.23
2018-04-27T10:27:27.702Z,3.47
2018-04-27T10:29:56.067Z,5.37
2018-04-27T10:32:23.640Z,5.93
2018-04-27T10:34:51.193Z,3.10
2018-04-27T10:37:18.734Z,5.80
2018-04-27T10:39:46.308Z,3.03
2018-04-27T10:42:13.846Z,5.50
2018-04-27T10:44:42.157Z,3.80
2018-04-27T10:47:09.734Z,4.77
2018-04-27T10:49:37.270Z,5.43
2018-04-27T10:52:04.821Z,4.07
2018-04-27T10:54:32.395Z,2.90
2018-04-27T10:56:59.943Z,5.13
2018-04-27T10:59:27.487Z,4.23
2018-04-27T11:01:55.063Z,2.47
2018-04-27T11:04:22.614Z,5.50
2018-04-27T11:06:50.926Z,8.00
2018-04-27T11:09:18.525Z,3.63
2018-04-27T11:11:46.081Z,5.63
2018-04-27T11:14:13.631Z,3.53
2018-04-27T11:16:42.046Z,5.33
2018-04-27T11:19:10.340Z,3.67
2018-04-27T11:21:37.887Z,4.90
2018-04-27T11:24:05.484Z,3.57
2018-04-27T11:26:33.035Z,4.50
2018-04-27T11:29:01.342Z,4.57
2018-04-27T11:31:28.918Z,6.77
2018-04-27T11:33:56.466Z,3.20
2018-04-27T11:36:24.774Z,5.93
2018-04-27T11:38:52.342Z,4.27
2018-04-27T11:41:19.971Z,4.47
2018-04-27T11:43:47.466Z,6.07
2018-04-27T11:46:15.807Z,5.43
2018-04-27T11:48:43.346Z,6.63
2018-04-27T11:51:11.667Z,6.77
2018-04-27T11:53:39.234Z,4.40
2018-04-27T11:56:06.792Z,3.60
2018-04-27T11:58:34.349Z,3.63
2018-04-27T12:01:01.928Z,5.30
2018-04-27T12:03:29.468Z,5.43
2018-04-27T12:05:57.014Z,3.40
2018-04-27T12:08:24.583Z,5.37
2018-04-27T12:10:52.124Z,5.93
2018-04-27T12:13:19.670Z,5.10
2018-04-27T12:15:48.014Z,2.93
2018-04-27T12:18:15.562Z,5.87
2018-04-27T12:20:43.111Z,6.77
2018-04-27T12:23:11.451Z,2.47
2018-04-27T12:25:39.003Z,2.60
2018-04-27T12:28:06.549Z,4.10
2018-04-27T12:30:34.165Z,7.10
2018-04-27T12:33:01.719Z,3.73
2018-04-27T12:35:29.271Z,3.10
2018-04-27T12:37:56.850Z,2.90
2018-04-27T12:40:24.403Z,3.47
2018-04-27T12:42:51.965Z,6.05
2018-04-27T12:45:20.326Z,3.78
2018-04-27T12:47:47.871Z,4.03
2018-04-27T12:50:15.433Z,4.73
2018-04-27T12:52:43.006Z,3.97
2018-04-27T12:55:10.559Z,5.23
2018-04-27T12:57:38.151Z,3.17
2018-04-27T13:00:05.724Z,2.87
2018-04-27T13:02:33.298Z,3.28
2018-04-27T13:05:00.878Z,2.40
2018-04-27T13:07:28.442Z,3.43
2018-04-27T13:09:55.982Z,4.70
2018-04-27T13:12:24.387Z,2.43
2018-04-27T13:14:51.877Z,3.43
2018-04-27T13:17:19.418Z,3.13
2018-04-27T13:19:46.965Z,3.53
2018-04-27T13:22:14.538Z,1.97
2018-04-27T13:24:42.078Z,6.23
2018-04-27T13:27:09.650Z,3.65
2018-04-27T13:29:37.253Z,4.40
2018-04-27T13:32:04.797Z,4.37
2018-04-27T13:34:32.391Z,3.25
2018-04-27T13:36:59.983Z,3.80
2018-04-27T13:39:28.323Z,4.55
2018-04-27T13:41:55.866Z,3.63
2018-04-27T13:44:24.202Z,3.20
2018-04-27T13:46:51.782Z,4.78
2018-04-27T13:49:19.332Z,3.27
2018-04-27T13:51:46.943Z,6.00
2018-04-27T13:54:14.484Z,3.77
2018-04-27T13:56:42.031Z,2.47
2018-04-27T13:59:10.428Z,5.67
2018-04-27T14:01:37.973Z,3.33
2018-04-27T14:04:05.554Z,3.90
2018-04-27T14:06:33.904Z,4.70
2018-04-27T14:09:01.478Z,4.33
2018-04-27T14:11:29.021Z,3.93
2018-04-27T14:13:56.611Z,3.40
2018-04-27T14:16:24.194Z,4.50
2018-04-27T14:18:51.754Z,3.37
2018-04-27T14:21:19.358Z,3.47
2018-04-27T14:23:47.696Z,3.85
2018-04-27T14:26:15.275Z,3.30
2018-04-27T14:28:42.876Z,3.10
2018-04-27T14:31:10.688Z,3.20
2018-04-27T14:33:39.036Z,5.53
2018-04-27T14:36:06.781Z,4.55
2018-04-27T14:38:34.351Z,5.43
2018-04-27T14:41:02.062Z,6.17
2018-04-27T14:43:29.655Z,3.30
2018-04-27T14:45:57.221Z,4.85
2018-04-27T14:48:24.822Z,5.30
2018-04-27T14:50:52.419Z,4.45
2018-04-27T14:53:19.970Z,4.27
2018-04-27T14:55:47.570Z,4.93
2018-04-27T14:58:15.361Z,4.78
2018-04-27T15:00:42.937Z,4.45
2018-04-27T15:03:10.490Z,6.00
2018-04-27T15:05:38.329Z,5.32
2018-04-27T15:08:05.982Z,3.72
2018-04-27T15:10:33.591Z,6.10
2018-04-27T15:13:01.949Z,3.08
2018-04-27T15:15:29.527Z,5.45
2018-04-27T15:17:57.769Z,5.28
2018-04-27T15:20:25.370Z,3.87
2018-04-27T15:22:52.933Z,5.37
2018-04-27T15:25:20.524Z,3.58
2018-04-27T15:27:48.427Z,3.20
2018-04-27T15:30:16.822Z,5.22
2018-04-27T15:32:44.394Z,5.25
2018-04-27T15:35:13.061Z,3.55
2018-04-27T15:37:40.655Z,3.50
2018-04-27T15:40:09.166Z,2.95
2018-04-27T15:42:37.056Z,3.60
2018-04-27T15:45:06.846Z,4.32
2018-04-27T15:47:34.547Z,3.47
2018-04-27T15:50:03.083Z,6.40
2018-04-27T15:52:30.652Z,3.70
2018-04-27T15:54:58.301Z,6.03
2018-04-27T15:57:26.718Z,5.33
2018-04-27T15:59:54.406Z,3.97
2018-04-27T16:02:22.372Z,2.87
2018-04-27T16:04:50.016Z,5.18
2018-04-27T16:07:18.355Z,5.00
2018-04-27T16:09:45.931Z,3.53
2018-04-27T16:12:13.544Z,3.35
2018-04-27T16:14:42.266Z,4.35
2018-04-27T16:17:09.830Z,2.15
2018-04-27T16:19:38.544Z,4.50
2018-04-27T16:22:06.182Z,3.60
2018-04-27T16:24:33.745Z,3.30
2018-04-27T16:27:01.338Z,5.12
2018-04-27T16:29:29.687Z,4.32
2018-04-27T16:31:57.239Z,3.23
2018-04-27T16:34:24.808Z,3.30
2018-04-27T16:36:52.378Z,1.67
2018-04-27T16:39:19.947Z,1.77
2018-04-27T16:41:48.300Z,1.80
2018-04-27T16:44:16.953Z,4.10
2018-04-27T16:46:44.507Z,2.03
2018-04-27T16:49:12.299Z,2.62
2018-04-27T16:51:39.966Z,4.80
2018-04-27T16:54:07.770Z,3.58
2018-04-27T16:56:35.398Z,2.53
2018-04-27T16:59:03.004Z,5.47
2018-04-27T17:01:30.604Z,3.20
2018-04-27T17:03:58.208Z,3.05
2018-04-27T17:06:26.677Z,3.28
2018-04-27T17:08:54.375Z,3.22
2018-04-27T17:11:23.722Z,5.43
2018-04-27T17:13:51.692Z,3.07
2018-04-27T17:16:19.414Z,4.85
2018-04-27T17:18:47.513Z,2.60
2018-04-27T17:21:15.497Z,6.53
2018-04-27T17:23:43.050Z,4.33
2018-04-27T17:26:10.656Z,3.35
2018-04-27T17:28:38.402Z,4.25
2018-04-27T17:31:05.986Z,5.28
2018-04-27T17:33:33.593Z,3.45
2018-04-27T17:36:01.157Z,3.37
2018-04-27T17:38:28.722Z,3.50
2018-04-27T17:40:57.103Z,2.35
2018-04-27T17:43:24.738Z,4.87
2018-04-27T17:45:52.350Z,1.75
2018-04-27T17:48:19.927Z,2.80
2018-04-27T17:50:48.271Z,2.55
2018-04-27T17:53:15.841Z,2.80
2018-04-27T17:55:43.486Z,2.55
2018-04-27T17:58:11.042Z,7.90
2018-04-27T18:00:39.376Z,2.75
2018-04-27T18:03:06.984Z,3.40
2018-04-27T18:05:34.558Z,4.70
2018-04-27T18:08:02.126Z,4.00
2018-04-27T18:10:30.530Z,3.92
2018-04-27T18:12:58.114Z,3.12
2018-04-27T18:15:25.694Z,2.35
2018-04-27T18:17:54.067Z,2.87
2018-04-27T18:20:21.638Z,3.83
2018-04-27T18:22:49.352Z,2.00
2018-04-27T18:25:16.947Z,3.50
2018-04-27T18:27:44.692Z,2.42
2018-04-27T18:30:12.254Z,4.57
2018-04-27T18:32:39.909Z,3.40
2018-04-27T18:35:07.511Z,5.60
2018-04-27T18:37:36.086Z,2.83
2018-04-27T18:40:04.177Z,4.75
2018-04-27T18:42:32.660Z,8.55
2018-04-27T18:45:00.666Z,5.62
2018-04-27T18:47:29.158Z,6.00
2018-04-27T18:49:58.896Z,7.18
2018-04-27T18:52:27.764Z,4.60
2018-04-27T18:54:57.180Z,6.10
2018-04-27T18:57:25.589Z,4.93
2018-04-27T18:59:53.179Z,4.60
2018-04-27T19:02:21.544Z,4.28
2018-04-27T19:04:49.120Z,4.47
2018-04-27T19:07:16.690Z,3.60
2018-04-27T19:09:44.289Z,3.33
2018-04-27T19:12:12.630Z,5.35
2018-04-27T19:14:40.295Z,6.53
2018-04-27T19:17:07.847Z,4.22
2018-04-27T19:19:35.643Z,3.67
2018-04-27T19:22:04.282Z,4.72
2018-04-27T19:24:32.694Z,3.30
2018-04-27T19:27:02.178Z,2.95
2018-04-27T19:29:29.891Z,3.03
2018-04-27T19:31:58.271Z,2.83
2018-04-27T19:34:26.001Z,3.05
2018-04-27T19:36:54.210Z,4.25
2018-04-27T19:39:21.807Z,4.50
2018-04-27T19:41:49.381Z,3.75
2018-04-27T19:44:16.974Z,4.55
2018-04-27T19:46:46.129Z,6.90
2018-04-27T19:49:16.217Z,5.75
2018-04-27T19:51:44.186Z,6.80
2018-04-27T19:54:11.973Z,4.87
2018-04-27T19:56:40.360Z,5.12
2018-04-27T19:59:08.716Z,5.20
2018-04-27T20:01:36.455Z,5.05
2018-04-27T20:04:04.040Z,4.43
2018-04-27T20:06:31.986Z,4.68
2018-04-27T20:09:00.562Z,4.28
2018-04-27T20:11:28.283Z,4.20
2018-04-27T20:13:56.785Z,4.65
2018-04-27T20:16:40.813Z,4.45
2018-04-27T20:19:09.184Z,3.47
2018-04-27T20:21:37.518Z,5.00
2018-04-27T20:24:06.049Z,3.80
2018-04-27T20:26:33.639Z,4.55
2018-04-27T20:29:01.357Z,4.18
2018-04-27T20:31:29.030Z,5.30
2018-04-27T20:33:56.787Z,5.10
2018-04-27T20:36:25.815Z,5.62
2018-04-27T20:38:53.425Z,4.85
2018-04-27T20:41:21.045Z,6.18
2018-04-27T20:43:50.351Z,7.47
2018-04-27T20:46:19.839Z,5.47
2018-04-27T20:48:47.420Z,6.10
2018-04-27T20:51:15.000Z,5.40
2018-04-27T20:54:13.155Z,7.20
2018-04-27T20:56:46.414Z,6.60
2018-04-27T20:59:14.805Z,7.20
2018-04-27T21:01:43.147Z,7.35
2018-04-27T21:04:10.726Z,7.82
2018-04-27T21:06:38.358Z,9.27
2018-04-27T21:09:05.926Z,7.18
2018-04-27T21:11:33.725Z,7.65
2018-04-27T21:14:01.328Z,10.00
2018-04-27T21:16:28.898Z,13.70
2018-04-27T21:18:56.471Z,9.18
2018-04-27T21:21:24.071Z,10.27
2018-04-27T21:23:51.638Z,8.88
2018-04-27T21:26:20.137Z,8.13
2018-04-27T21:28:48.750Z,7.30
2018-04-27T21:31:17.087Z,7.18
2018-04-27T21:33:51.298Z,6.68
2018-04-27T21:36:18.861Z,6.75
2018-04-27T21:41:45.275Z,6.87
2018-04-27T21:44:18.608Z,9.70
2018-04-27T21:46:46.181Z,5.80
2018-04-27T21:49:14.595Z,5.93
2018-04-27T21:51:49.417Z,7.15
2018-04-27T21:54:20.927Z,5.93
2018-04-27T21:59:55.592Z,7.62
2018-04-27T22:05:34.280Z,7.60
2018-04-27T22:08:04.370Z,7.85
2018-04-27T22:10:31.934Z,8.30
2018-04-27T22:12:59.499Z,7.90
2018-04-27T22:15:27.102Z,7.82
2018-04-27T22:17:56.282Z,8.73
2018-04-27T22:20:29.874Z,9.32
2018-04-27T22:22:57.433Z,7.05
2018-04-27T22:25:25.901Z,7.70
2018-04-27T22:27:55.166Z,7.10
2018-04-27T22:30:31.343Z,7.32
2018-04-27T22:32:58.943Z,6.47
2018-04-27T22:35:32.024Z,10.82
2018-04-27T22:37:59.622Z,8.80
2018-04-27T22:40:38.398Z,9.27
2018-04-27T22:43:06.754Z,7.50
2018-04-27T22:45:36.006Z,7.93
2018-04-27T22:48:23.314Z,9.95
2018-04-27T22:50:59.138Z,9.00
2018-04-27T22:53:39.906Z,8.52
2018-04-27T22:56:07.475Z,7.30
2018-04-27T22:58:35.060Z,8.52
2018-04-27T23:01:10.529Z,7.62
2018-04-27T23:03:38.091Z,9.05
2018-04-27T23:06:07.595Z,5.22
2018-04-27T23:08:35.191Z,5.97
2018-04-27T23:14:16.198Z,5.28
2018-04-27T23:16:56.494Z,6.53
2018-04-27T23:19:25.019Z,3.85
2018-04-27T23:21:58.899Z,5.40
2018-04-27T23:24:26.505Z,4.80
2018-04-27T23:27:04.688Z,5.80
2018-04-27T23:29:32.286Z,4.82
2018-04-27T23:31:59.850Z,5.15
2018-04-27T23:34:27.421Z,4.85
2018-04-27T23:36:55.014Z,5.53
2018-04-27T23:39:23.359Z,4.12
2018-04-27T23:41:50.928Z,4.62
2018-04-27T23:44:18.543Z,4.62
2018-04-27T23:46:46.978Z,4.35
2018-04-27T23:49:14.549Z,3.97
2018-04-27T23:51:42.150Z,6.12
2018-04-27T23:54:11.211Z,5.75
2018-04-27T23:56:44.107Z,5.20
2018-04-27T23:59:12.442Z,5.93
